sensor_id;sensor_type;location;lat;lon;timestamp;P1;durP1;ratioP1;P2;durP2;ratioP2
2452;SDS011;63678;47.994;7.854;2024-02-04T00:01:55;7.53;;;4.00;;
2452;SDS011;63678;47.994;7.854;2024-02-04T00:04:27;7.13;;;4.22;;
2452;SDS011;63678;47.994;7.854;2024-02-04T00:07:01;6.18;;;3.78;;
2452;SDS011;63678;47.994;7.854;2024-02-04T00:09:33;7.22;;;4.15;;
2452;SDS011;63678;47.994;7.854;2024-02-04T00:12:07;8.05;;;4.13;;
2452;SDS011;63678;47.994;7.854;2024-02-04T00:14:40;11.67;;;6.10;;
2452;SDS011;63678;47.994;7.854;2024-02-04T00:17:13;15.23;;;7.30;;
2452;SDS011;63678;47.994;7.854;2024-02-04T00:19:46;7.07;;;3.63;;
2452;SDS011;63678;47.994;7.854;2024-02-04T00:22:19;6.55;;;3.70;;
2452;SDS011;63678;47.994;7.854;2024-02-04T00:24:51;7.18;;;3.83;;
2452;SDS011;63678;47.994;7.854;2024-02-04T00:27:24;6.00;;;4.00;;
2452;SDS011;63678;47.994;7.854;2024-02-04T00:30:01;7.97;;;3.50;;
2452;SDS011;63678;47.994;7.854;2024-02-04T00:32:34;7.35;;;4.10;;
2452;SDS011;63678;47.994;7.854;2024-02-04T00:35:07;8.38;;;3.85;;
2452;SDS011;63678;47.994;7.854;2024-02-04T00:37:40;5.97;;;3.50;;
2452;SDS011;63678;47.994;7.854;2024-02-04T00:40:13;6.20;;;2.73;;
2452;SDS011;63678;47.994;7.854;2024-02-04T00:42:46;6.38;;;3.67;;
2452;SDS011;63678;47.994;7.854;2024-02-04T00:45:18;6.10;;;3.13;;
2452;SDS011;63678;47.994;7.854;2024-02-04T00:47:51;5.35;;;3.53;;
2452;SDS011;63678;47.994;7.854;2024-02-04T00:50:44;6.60;;;3.15;;
2452;SDS011;63678;47.994;7.854;2024-02-04T00:53:16;6.43;;;2.90;;
2452;SDS011;63678;47.994;7.854;2024-02-04T00:55:49;6.30;;;2.80;;
2452;SDS011;63678;47.994;7.854;2024-02-04T00:58:24;4.80;;;2.50;;
2452;SDS011;63678;47.994;7.854;2024-02-04T01:00:57;5.20;;;3.20;;
2452;SDS011;63678;47.994;7.854;2024-02-04T01:03:30;5.78;;;2.70;;
2452;SDS011;63678;47.994;7.854;2024-02-04T01:06:03;5.77;;;3.13;;
2452;SDS011;63678;47.994;7.854;2024-02-04T01:08:36;5.95;;;2.47;;
2452;SDS011;63678;47.994;7.854;2024-02-04T01:11:09;5.72;;;2.95;;
2452;SDS011;63678;47.994;7.854;2024-02-04T01:13:42;6.30;;;2.78;;
2452;SDS011;63678;47.994;7.854;2024-02-04T01:16:14;4.25;;;2.40;;
2452;SDS011;63678;47.994;7.854;2024-02-04T01:18:47;4.43;;;2.40;;
2452;SDS011;63678;47.994;7.854;2024-02-04T01:21:19;5.43;;;2.33;;
2452;SDS011;63678;47.994;7.854;2024-02-04T01:23:51;5.55;;;2.42;;
2452;SDS011;63678;47.994;7.854;2024-02-04T01:26:24;4.80;;;2.92;;
2452;SDS011;63678;47.994;7.854;2024-02-04T01:28:57;4.38;;;2.10;;
2452;SDS011;63678;47.994;7.854;2024-02-04T01:31:29;4.17;;;2.10;;
2452;SDS011;63678;47.994;7.854;2024-02-04T01:34:03;4.80;;;2.28;;
2452;SDS011;63678;47.994;7.854;2024-02-04T01:36:35;4.60;;;2.28;;
2452;SDS011;63678;47.994;7.854;2024-02-04T01:39:08;4.20;;;2.13;;
2452;SDS011;63678;47.994;7.854;2024-02-04T01:41:42;3.85;;;2.20;;
2452;SDS011;63678;47.994;7.854;2024-02-04T01:44:17;4.67;;;2.47;;
2452;SDS011;63678;47.994;7.854;2024-02-04T01:46:50;6.55;;;2.80;;
2452;SDS011;63678;47.994;7.854;2024-02-04T01:49:23;4.60;;;2.38;;
2452;SDS011;63678;47.994;7.854;2024-02-04T01:51:56;5.07;;;2.80;;
2452;SDS011;63678;47.994;7.854;2024-02-04T01:54:29;5.38;;;2.75;;
2452;SDS011;63678;47.994;7.854;2024-02-04T01:57:03;4.50;;;2.33;;
2452;SDS011;63678;47.994;7.854;2024-02-04T01:59:37;4.40;;;2.15;;
2452;SDS011;63678;47.994;7.854;2024-02-04T02:02:11;6.32;;;2.88;;
2452;SDS011;63678;47.994;7.854;2024-02-04T02:04:45;4.80;;;2.95;;
2452;SDS011;63678;47.994;7.854;2024-02-04T02:07:19;5.07;;;2.85;;
2452;SDS011;63678;47.994;7.854;2024-02-04T02:09:56;5.60;;;2.87;;
2452;SDS011;63678;47.994;7.854;2024-02-04T02:12:34;4.53;;;2.60;;
2452;SDS011;63678;47.994;7.854;2024-02-04T02:15:14;5.90;;;2.75;;
2452;SDS011;63678;47.994;7.854;2024-02-04T02:20:41;5.35;;;3.42;;
2452;SDS011;63678;47.994;7.854;2024-02-04T02:26:51;5.18;;;2.92;;
2452;SDS011;63678;47.994;7.854;2024-02-04T02:29:24;4.88;;;2.53;;
2452;SDS011;63678;47.994;7.854;2024-02-04T02:31:57;5.28;;;3.03;;
2452;SDS011;63678;47.994;7.854;2024-02-04T02:34:30;5.30;;;3.05;;
2452;SDS011;63678;47.994;7.854;2024-02-04T02:37:20;4.70;;;2.60;;
2452;SDS011;63678;47.994;7.854;2024-02-04T02:40:22;6.13;;;2.58;;
2452;SDS011;63678;47.994;7.854;2024-02-04T02:43:02;5.15;;;2.70;;
2452;SDS011;63678;47.994;7.854;2024-02-04T02:45:35;4.15;;;2.25;;
2452;SDS011;63678;47.994;7.854;2024-02-04T02:48:09;4.72;;;2.70;;
2452;SDS011;63678;47.994;7.854;2024-02-04T02:50:43;4.57;;;2.60;;
2452;SDS011;63678;47.994;7.854;2024-02-04T02:53:16;4.72;;;2.90;;
2452;SDS011;63678;47.994;7.854;2024-02-04T02:55:51;4.63;;;2.40;;
2452;SDS011;63678;47.994;7.854;2024-02-04T02:58:23;5.28;;;2.72;;
2452;SDS011;63678;47.994;7.854;2024-02-04T03:00:56;5.85;;;3.20;;
2452;SDS011;63678;47.994;7.854;2024-02-04T03:03:28;4.93;;;2.40;;
2452;SDS011;63678;47.994;7.854;2024-02-04T03:06:01;4.72;;;2.55;;
2452;SDS011;63678;47.994;7.854;2024-02-04T03:08:33;4.97;;;2.75;;
2452;SDS011;63678;47.994;7.854;2024-02-04T03:11:06;4.40;;;2.60;;
2452;SDS011;63678;47.994;7.854;2024-02-04T03:13:39;4.40;;;2.47;;
2452;SDS011;63678;47.994;7.854;2024-02-04T03:16:11;4.57;;;2.47;;
2452;SDS011;63678;47.994;7.854;2024-02-04T03:18:45;4.07;;;2.10;;
2452;SDS011;63678;47.994;7.854;2024-02-04T03:21:18;4.10;;;2.03;;
2452;SDS011;63678;47.994;7.854;2024-02-04T03:23:50;3.80;;;2.17;;
2452;SDS011;63678;47.994;7.854;2024-02-04T03:26:23;5.38;;;2.40;;
2452;SDS011;63678;47.994;7.854;2024-02-04T03:28:55;4.40;;;2.40;;
2452;SDS011;63678;47.994;7.854;2024-02-04T03:31:28;4.60;;;2.65;;
2452;SDS011;63678;47.994;7.854;2024-02-04T03:34:01;4.63;;;2.40;;
2452;SDS011;63678;47.994;7.854;2024-02-04T03:36:33;4.72;;;2.28;;
2452;SDS011;63678;47.994;7.854;2024-02-04T03:39:10;4.72;;;2.60;;
2452;SDS011;63678;47.994;7.854;2024-02-04T03:41:43;4.37;;;2.30;;
2452;SDS011;63678;47.994;7.854;2024-02-04T03:44:15;4.85;;;2.47;;
2452;SDS011;63678;47.994;7.854;2024-02-04T03:46:48;5.35;;;2.75;;
2452;SDS011;63678;47.994;7.854;2024-02-04T03:49:22;4.05;;;1.95;;
2452;SDS011;63678;47.994;7.854;2024-02-04T03:51:55;4.85;;;2.00;;
2452;SDS011;63678;47.994;7.854;2024-02-04T03:54:28;4.70;;;2.33;;
2452;SDS011;63678;47.994;7.854;2024-02-04T03:57:00;4.07;;;2.13;;
2452;SDS011;63678;47.994;7.854;2024-02-04T03:59:33;3.65;;;1.90;;
2452;SDS011;63678;47.994;7.854;2024-02-04T04:02:05;4.50;;;2.30;;
2452;SDS011;63678;47.994;7.854;2024-02-04T04:04:39;4.50;;;2.28;;
2452;SDS011;63678;47.994;7.854;2024-02-04T04:07:14;3.93;;;2.03;;
2452;SDS011;63678;47.994;7.854;2024-02-04T04:09:47;4.05;;;2.30;;
2452;SDS011;63678;47.994;7.854;2024-02-04T04:12:20;4.10;;;2.20;;
2452;SDS011;63678;47.994;7.854;2024-02-04T04:14:53;4.38;;;2.30;;
2452;SDS011;63678;47.994;7.854;2024-02-04T04:17:25;4.47;;;2.17;;
2452;SDS011;63678;47.994;7.854;2024-02-04T04:19:58;5.50;;;2.30;;
2452;SDS011;63678;47.994;7.854;2024-02-04T04:22:31;3.85;;;2.00;;
2452;SDS011;63678;47.994;7.854;2024-02-04T04:25:03;3.60;;;1.98;;
2452;SDS011;63678;47.994;7.854;2024-02-04T04:27:36;4.30;;;2.05;;
2452;SDS011;63678;47.994;7.854;2024-02-04T04:30:08;4.53;;;2.10;;
2452;SDS011;63678;47.994;7.854;2024-02-04T04:32:41;3.80;;;1.97;;
2452;SDS011;63678;47.994;7.854;2024-02-04T04:35:14;4.85;;;2.30;;
2452;SDS011;63678;47.994;7.854;2024-02-04T04:37:46;4.78;;;2.10;;
2452;SDS011;63678;47.994;7.854;2024-02-04T04:40:19;3.80;;;1.77;;
2452;SDS011;63678;47.994;7.854;2024-02-04T04:42:51;3.67;;;2.00;;
2452;SDS011;63678;47.994;7.854;2024-02-04T04:45:24;3.60;;;1.90;;
2452;SDS011;63678;47.994;7.854;2024-02-04T04:47:56;5.05;;;2.30;;
2452;SDS011;63678;47.994;7.854;2024-02-04T04:50:30;4.40;;;2.65;;
2452;SDS011;63678;47.994;7.854;2024-02-04T04:53:03;4.03;;;1.98;;
2452;SDS011;63678;47.994;7.854;2024-02-04T04:55:35;3.70;;;1.90;;
2452;SDS011;63678;47.994;7.854;2024-02-04T04:58:08;4.20;;;2.33;;
2452;SDS011;63678;47.994;7.854;2024-02-04T05:00:40;4.55;;;2.65;;
2452;SDS011;63678;47.994;7.854;2024-02-04T05:03:13;7.38;;;2.20;;
2452;SDS011;63678;47.994;7.854;2024-02-04T05:05:46;4.25;;;1.73;;
2452;SDS011;63678;47.994;7.854;2024-02-04T05:08:18;4.60;;;1.95;;
2452;SDS011;63678;47.994;7.854;2024-02-04T05:10:51;5.23;;;2.30;;
2452;SDS011;63678;47.994;7.854;2024-02-04T05:13:23;5.10;;;3.35;;
2452;SDS011;63678;47.994;7.854;2024-02-04T05:15:56;5.75;;;1.73;;
2452;SDS011;63678;47.994;7.854;2024-02-04T05:18:29;4.20;;;2.10;;
2452;SDS011;63678;47.994;7.854;2024-02-04T05:21:04;4.63;;;2.17;;
2452;SDS011;63678;47.994;7.854;2024-02-04T05:23:38;4.20;;;2.10;;
2452;SDS011;63678;47.994;7.854;2024-02-04T05:26:11;4.15;;;2.13;;
2452;SDS011;63678;47.994;7.854;2024-02-04T05:28:44;4.22;;;1.88;;
2452;SDS011;63678;47.994;7.854;2024-02-04T05:31:17;4.15;;;2.17;;
2452;SDS011;63678;47.994;7.854;2024-02-04T05:33:51;5.03;;;2.10;;
2452;SDS011;63678;47.994;7.854;2024-02-04T05:36:24;3.87;;;1.80;;
2452;SDS011;63678;47.994;7.854;2024-02-04T05:38:57;3.72;;;1.75;;
2452;SDS011;63678;47.994;7.854;2024-02-04T05:41:42;3.85;;;1.80;;
2452;SDS011;63678;47.994;7.854;2024-02-04T05:44:15;5.25;;;2.20;;
2452;SDS011;63678;47.994;7.854;2024-02-04T05:46:47;4.18;;;2.38;;
2452;SDS011;63678;47.994;7.854;2024-02-04T05:49:20;4.37;;;2.10;;
2452;SDS011;63678;47.994;7.854;2024-02-04T05:51:52;4.00;;;1.90;;
2452;SDS011;63678;47.994;7.854;2024-02-04T05:54:26;4.75;;;1.95;;
2452;SDS011;63678;47.994;7.854;2024-02-04T05:56:58;5.55;;;2.22;;
2452;SDS011;63678;47.994;7.854;2024-02-04T05:59:30;5.82;;;2.00;;
2452;SDS011;63678;47.994;7.854;2024-02-04T06:02:03;3.50;;;2.00;;
2452;SDS011;63678;47.994;7.854;2024-02-04T06:04:35;6.75;;;2.13;;
2452;SDS011;63678;47.994;7.854;2024-02-04T06:07:08;6.30;;;2.00;;
2452;SDS011;63678;47.994;7.854;2024-02-04T06:09:41;4.40;;;2.05;;
2452;SDS011;63678;47.994;7.854;2024-02-04T06:12:13;4.22;;;2.20;;
2452;SDS011;63678;47.994;7.854;2024-02-04T06:14:46;3.60;;;2.00;;
2452;SDS011;63678;47.994;7.854;2024-02-04T06:17:18;7.30;;;2.17;;
2452;SDS011;63678;47.994;7.854;2024-02-04T06:19:51;6.03;;;2.10;;
2452;SDS011;63678;47.994;7.854;2024-02-04T06:22:23;5.78;;;2.42;;
2452;SDS011;63678;47.994;7.854;2024-02-04T06:24:56;4.20;;;2.42;;
2452;SDS011;63678;47.994;7.854;2024-02-04T06:27:29;3.93;;;2.00;;
2452;SDS011;63678;47.994;7.854;2024-02-04T06:30:02;5.18;;;1.73;;
2452;SDS011;63678;47.994;7.854;2024-02-04T06:32:38;4.80;;;1.90;;
2452;SDS011;63678;47.994;7.854;2024-02-04T06:35:11;4.07;;;2.17;;
2452;SDS011;63678;47.994;7.854;2024-02-04T06:37:43;4.38;;;2.20;;
2452;SDS011;63678;47.994;7.854;2024-02-04T06:40:16;3.57;;;2.00;;
2452;SDS011;63678;47.994;7.854;2024-02-04T06:42:48;3.75;;;2.17;;
2452;SDS011;63678;47.994;7.854;2024-02-04T06:45:21;4.20;;;2.05;;
2452;SDS011;63678;47.994;7.854;2024-02-04T06:47:55;4.38;;;2.00;;
2452;SDS011;63678;47.994;7.854;2024-02-04T06:50:27;4.18;;;2.03;;
2452;SDS011;63678;47.994;7.854;2024-02-04T06:53:00;4.43;;;2.17;;
2452;SDS011;63678;47.994;7.854;2024-02-04T06:55:32;5.07;;;1.90;;
2452;SDS011;63678;47.994;7.854;2024-02-04T06:58:05;4.10;;;2.03;;
2452;SDS011;63678;47.994;7.854;2024-02-04T07:00:38;3.30;;;1.73;;
2452;SDS011;63678;47.994;7.854;2024-02-04T07:03:10;4.25;;;1.85;;
2452;SDS011;63678;47.994;7.854;2024-02-04T07:05:43;4.07;;;2.03;;
2452;SDS011;63678;47.994;7.854;2024-02-04T07:08:18;3.50;;;1.50;;
2452;SDS011;63678;47.994;7.854;2024-02-04T07:10:51;3.25;;;1.40;;
2452;SDS011;63678;47.994;7.854;2024-02-04T07:13:25;4.05;;;1.50;;
2452;SDS011;63678;47.994;7.854;2024-02-04T07:15:58;3.47;;;1.63;;
2452;SDS011;63678;47.994;7.854;2024-02-04T07:18:31;3.43;;;1.60;;
2452;SDS011;63678;47.994;7.854;2024-02-04T07:21:03;3.50;;;1.40;;
2452;SDS011;63678;47.994;7.854;2024-02-04T07:23:36;3.55;;;1.67;;
2452;SDS011;63678;47.994;7.854;2024-02-04T07:26:09;4.93;;;1.60;;
2452;SDS011;63678;47.994;7.854;2024-02-04T07:28:41;3.60;;;1.40;;
2452;SDS011;63678;47.994;7.854;2024-02-04T07:31:14;3.80;;;1.90;;
2452;SDS011;63678;47.994;7.854;2024-02-04T07:33:46;2.97;;;1.27;;
2452;SDS011;63678;47.994;7.854;2024-02-04T07:36:19;3.80;;;1.50;;
2452;SDS011;63678;47.994;7.854;2024-02-04T07:38:52;3.20;;;1.42;;
2452;SDS011;63678;47.994;7.854;2024-02-04T07:41:28;3.63;;;1.20;;
2452;SDS011;63678;47.994;7.854;2024-02-04T07:44:01;2.90;;;1.30;;
2452;SDS011;63678;47.994;7.854;2024-02-04T07:46:33;3.05;;;1.50;;
2452;SDS011;63678;47.994;7.854;2024-02-04T07:49:06;3.08;;;1.30;;
2452;SDS011;63678;47.994;7.854;2024-02-04T07:51:38;3.55;;;1.60;;
2452;SDS011;63678;47.994;7.854;2024-02-04T07:54:11;3.50;;;1.88;;
2452;SDS011;63678;47.994;7.854;2024-02-04T07:56:44;3.50;;;1.50;;
2452;SDS011;63678;47.994;7.854;2024-02-04T07:59:17;3.40;;;1.50;;
2452;SDS011;63678;47.994;7.854;2024-02-04T08:01:50;3.05;;;1.30;;
2452;SDS011;63678;47.994;7.854;2024-02-04T08:04:22;3.17;;;1.10;;
2452;SDS011;63678;47.994;7.854;2024-02-04T08:06:55;3.30;;;1.65;;
2452;SDS011;63678;47.994;7.854;2024-02-04T08:09:28;3.20;;;1.60;;
2452;SDS011;63678;47.994;7.854;2024-02-04T08:12:01;3.67;;;1.90;;
2452;SDS011;63678;47.994;7.854;2024-02-04T08:14:35;3.50;;;1.50;;
2452;SDS011;63678;47.994;7.854;2024-02-04T08:17:07;3.22;;;1.58;;
2452;SDS011;63678;47.994;7.854;2024-02-04T08:19:40;3.50;;;1.45;;
2452;SDS011;63678;47.994;7.854;2024-02-04T08:22:14;3.57;;;1.57;;
2452;SDS011;63678;47.994;7.854;2024-02-04T08:24:46;3.42;;;1.52;;
2452;SDS011;63678;47.994;7.854;2024-02-04T08:27:19;3.97;;;1.40;;
2452;SDS011;63678;47.994;7.854;2024-02-04T08:29:52;3.97;;;1.27;;
2452;SDS011;63678;47.994;7.854;2024-02-04T08:32:24;3.42;;;1.30;;
2452;SDS011;63678;47.994;7.854;2024-02-04T08:34:56;3.70;;;1.73;;
2452;SDS011;63678;47.994;7.854;2024-02-04T08:37:29;4.05;;;1.60;;
2452;SDS011;63678;47.994;7.854;2024-02-04T08:40:04;4.45;;;1.73;;
2452;SDS011;63678;47.994;7.854;2024-02-04T08:42:38;5.40;;;1.48;;
2452;SDS011;63678;47.994;7.854;2024-02-04T08:45:11;3.88;;;1.60;;
2452;SDS011;63678;47.994;7.854;2024-02-04T08:47:44;3.33;;;1.27;;
2452;SDS011;63678;47.994;7.854;2024-02-04T08:50:17;3.13;;;1.20;;
2452;SDS011;63678;47.994;7.854;2024-02-04T08:52:49;3.65;;;1.90;;
2452;SDS011;63678;47.994;7.854;2024-02-04T08:55:22;5.22;;;1.92;;
2452;SDS011;63678;47.994;7.854;2024-02-04T08:57:55;3.50;;;1.63;;
2452;SDS011;63678;47.994;7.854;2024-02-04T09:00:27;3.73;;;1.50;;
2452;SDS011;63678;47.994;7.854;2024-02-04T09:03:00;2.80;;;1.20;;
2452;SDS011;63678;47.994;7.854;2024-02-04T09:05:32;3.85;;;1.33;;
2452;SDS011;63678;47.994;7.854;2024-02-04T09:08:05;3.00;;;1.20;;
2452;SDS011;63678;47.994;7.854;2024-02-04T09:10:37;3.10;;;1.30;;
2452;SDS011;63678;47.994;7.854;2024-02-04T09:13:10;3.50;;;1.27;;
2452;SDS011;63678;47.994;7.854;2024-02-04T09:15:42;3.10;;;1.20;;
2452;SDS011;63678;47.994;7.854;2024-02-04T09:18:15;3.20;;;1.10;;
2452;SDS011;63678;47.994;7.854;2024-02-04T09:20:48;3.20;;;1.50;;
2452;SDS011;63678;47.994;7.854;2024-02-04T09:23:21;2.80;;;1.17;;
2452;SDS011;63678;47.994;7.854;2024-02-04T09:25:53;4.10;;;1.45;;
2452;SDS011;63678;47.994;7.854;2024-02-04T09:28:26;2.90;;;1.13;;
2452;SDS011;63678;47.994;7.854;2024-02-04T09:30:59;2.97;;;1.40;;
2452;SDS011;63678;47.994;7.854;2024-02-04T09:33:32;3.25;;;1.48;;
2452;SDS011;63678;47.994;7.854;2024-02-04T09:36:05;3.13;;;1.58;;
2452;SDS011;63678;47.994;7.854;2024-02-04T09:38:38;4.97;;;1.70;;
2452;SDS011;63678;47.994;7.854;2024-02-04T09:41:11;5.20;;;1.67;;
2452;SDS011;63678;47.994;7.854;2024-02-04T09:43:44;3.42;;;1.50;;
2452;SDS011;63678;47.994;7.854;2024-02-04T09:46:17;3.58;;;1.75;;
2452;SDS011;63678;47.994;7.854;2024-02-04T09:48:50;3.60;;;1.85;;
2452;SDS011;63678;47.994;7.854;2024-02-04T09:51:25;4.63;;;1.83;;
2452;SDS011;63678;47.994;7.854;2024-02-04T09:53:58;3.00;;;1.17;;
2452;SDS011;63678;47.994;7.854;2024-02-04T09:56:38;3.53;;;1.45;;
2452;SDS011;63678;47.994;7.854;2024-02-04T09:59:13;3.20;;;1.75;;
2452;SDS011;63678;47.994;7.854;2024-02-04T10:01:46;4.18;;;1.50;;
2452;SDS011;63678;47.994;7.854;2024-02-04T10:04:19;4.68;;;2.17;;
2452;SDS011;63678;47.994;7.854;2024-02-04T10:06:52;4.85;;;1.92;;
2452;SDS011;63678;47.994;7.854;2024-02-04T10:09:24;3.50;;;1.90;;
2452;SDS011;63678;47.994;7.854;2024-02-04T10:11:57;3.95;;;1.60;;
2452;SDS011;63678;47.994;7.854;2024-02-04T10:14:31;3.15;;;1.80;;
2452;SDS011;63678;47.994;7.854;2024-02-04T10:17:03;3.10;;;1.42;;
2452;SDS011;63678;47.994;7.854;2024-02-04T10:19:36;2.90;;;1.30;;
2452;SDS011;63678;47.994;7.854;2024-02-04T10:22:09;2.90;;;1.40;;
2452;SDS011;63678;47.994;7.854;2024-02-04T10:24:42;4.55;;;1.42;;
2452;SDS011;63678;47.994;7.854;2024-02-04T10:27:17;3.05;;;1.52;;
2452;SDS011;63678;47.994;7.854;2024-02-04T10:30:03;2.97;;;1.30;;
2452;SDS011;63678;47.994;7.854;2024-02-04T10:32:37;2.90;;;1.30;;
2452;SDS011;63678;47.994;7.854;2024-02-04T10:35:11;3.78;;;2.05;;
2452;SDS011;63678;47.994;7.854;2024-02-04T10:37:44;4.20;;;1.67;;
2452;SDS011;63678;47.994;7.854;2024-02-04T10:40:18;3.30;;;1.70;;
2452;SDS011;63678;47.994;7.854;2024-02-04T10:42:50;3.92;;;1.27;;
2452;SDS011;63678;47.994;7.854;2024-02-04T10:45:30;3.55;;;1.42;;
2452;SDS011;63678;47.994;7.854;2024-02-04T10:48:04;4.97;;;2.10;;
2452;SDS011;63678;47.994;7.854;2024-02-04T10:50:42;2.95;;;1.45;;
2452;SDS011;63678;47.994;7.854;2024-02-04T10:53:18;3.58;;;1.30;;
2452;SDS011;63678;47.994;7.854;2024-02-04T10:55:53;3.63;;;1.70;;
2452;SDS011;63678;47.994;7.854;2024-02-04T10:58:30;3.20;;;1.33;;
2452;SDS011;63678;47.994;7.854;2024-02-04T11:01:03;3.20;;;1.63;;
2452;SDS011;63678;47.994;7.854;2024-02-04T11:03:38;3.08;;;1.30;;
2452;SDS011;63678;47.994;7.854;2024-02-04T11:06:12;4.82;;;1.35;;
2452;SDS011;63678;47.994;7.854;2024-02-04T11:08:46;3.80;;;1.33;;
2452;SDS011;63678;47.994;7.854;2024-02-04T11:11:20;4.55;;;1.50;;
2452;SDS011;63678;47.994;7.854;2024-02-04T11:14:00;3.00;;;1.20;;
2452;SDS011;63678;47.994;7.854;2024-02-04T11:19:28;3.03;;;1.50;;
2452;SDS011;63678;47.994;7.854;2024-02-04T11:22:42;5.05;;;1.40;;
2452;SDS011;63678;47.994;7.854;2024-02-04T11:25:29;3.80;;;1.57;;
2452;SDS011;63678;47.994;7.854;2024-02-04T11:28:25;5.07;;;1.30;;
2452;SDS011;63678;47.994;7.854;2024-02-04T11:30:58;3.20;;;1.58;;
2452;SDS011;63678;47.994;7.854;2024-02-04T11:33:32;3.25;;;1.60;;
2452;SDS011;63678;47.994;7.854;2024-02-04T11:36:05;3.50;;;1.50;;
2452;SDS011;63678;47.994;7.854;2024-02-04T11:38:42;3.43;;;1.50;;
2452;SDS011;63678;47.994;7.854;2024-02-04T11:41:22;4.15;;;1.65;;
2452;SDS011;63678;47.994;7.854;2024-02-04T11:43:57;3.67;;;1.52;;
2452;SDS011;63678;47.994;7.854;2024-02-04T11:46:33;3.25;;;1.50;;
2452;SDS011;63678;47.994;7.854;2024-02-04T11:49:14;3.00;;;1.40;;
2452;SDS011;63678;47.994;7.854;2024-02-04T11:51:51;4.45;;;1.88;;
2452;SDS011;63678;47.994;7.854;2024-02-04T11:54:25;3.75;;;1.35;;
2452;SDS011;63678;47.994;7.854;2024-02-04T11:57:00;3.00;;;1.20;;
2452;SDS011;63678;47.994;7.854;2024-02-04T11:59:33;2.80;;;1.10;;
2452;SDS011;63678;47.994;7.854;2024-02-04T12:07:59;3.55;;;1.80;;
2452;SDS011;63678;47.994;7.854;2024-02-04T12:11:14;3.20;;;1.70;;
2452;SDS011;63678;47.994;7.854;2024-02-04T12:13:48;3.50;;;1.60;;
2452;SDS011;63678;47.994;7.854;2024-02-04T12:16:22;3.22;;;1.50;;
2452;SDS011;63678;47.994;7.854;2024-02-04T12:18:55;4.05;;;1.80;;
2452;SDS011;63678;47.994;7.854;2024-02-04T12:21:28;4.53;;;1.80;;
2452;SDS011;63678;47.994;7.854;2024-02-04T12:24:01;4.88;;;2.25;;
2452;SDS011;63678;47.994;7.854;2024-02-04T12:26:35;3.70;;;1.50;;
2452;SDS011;63678;47.994;7.854;2024-02-04T12:29:07;3.22;;;1.85;;
2452;SDS011;63678;47.994;7.854;2024-02-04T12:31:40;3.78;;;1.83;;
2452;SDS011;63678;47.994;7.854;2024-02-04T12:34:13;3.50;;;1.85;;
2452;SDS011;63678;47.994;7.854;2024-02-04T12:36:46;5.05;;;1.63;;
2452;SDS011;63678;47.994;7.854;2024-02-04T12:39:32;3.08;;;1.58;;
2452;SDS011;63678;47.994;7.854;2024-02-04T12:42:05;4.53;;;2.05;;
2452;SDS011;63678;47.994;7.854;2024-02-04T12:44:41;3.38;;;1.85;;
2452;SDS011;63678;47.994;7.854;2024-02-04T12:47:18;5.05;;;1.80;;
2452;SDS011;63678;47.994;7.854;2024-02-04T12:49:51;3.15;;;1.40;;
2452;SDS011;63678;47.994;7.854;2024-02-04T12:52:31;3.28;;;1.58;;
2452;SDS011;63678;47.994;7.854;2024-02-04T12:55:07;4.57;;;1.60;;
2452;SDS011;63678;47.994;7.854;2024-02-04T12:57:39;3.58;;;1.90;;
2452;SDS011;63678;47.994;7.854;2024-02-04T13:00:12;3.25;;;1.60;;
2452;SDS011;63678;47.994;7.854;2024-02-04T13:02:49;4.00;;;1.75;;
2452;SDS011;63678;47.994;7.854;2024-02-04T13:05:23;3.22;;;1.60;;
2452;SDS011;63678;47.994;7.854;2024-02-04T13:08:02;3.60;;;1.42;;
2452;SDS011;63678;47.994;7.854;2024-02-04T13:10:37;3.60;;;1.58;;
2452;SDS011;63678;47.994;7.854;2024-02-04T13:13:12;4.68;;;1.30;;
2452;SDS011;63678;47.994;7.854;2024-02-04T13:15:46;3.53;;;1.48;;
2452;SDS011;63678;47.994;7.854;2024-02-04T13:18:19;4.28;;;1.60;;
2452;SDS011;63678;47.994;7.854;2024-02-04T13:20:53;2.90;;;1.40;;
2452;SDS011;63678;47.994;7.854;2024-02-04T13:23:25;3.80;;;2.30;;
2452;SDS011;63678;47.994;7.854;2024-02-04T13:25:59;4.35;;;1.80;;
2452;SDS011;63678;47.994;7.854;2024-02-04T13:28:32;3.63;;;1.48;;
2452;SDS011;63678;47.994;7.854;2024-02-04T13:31:07;3.50;;;1.40;;
2452;SDS011;63678;47.994;7.854;2024-02-04T13:33:40;4.20;;;1.95;;
2452;SDS011;63678;47.994;7.854;2024-02-04T13:36:13;3.75;;;1.83;;
2452;SDS011;63678;47.994;7.854;2024-02-04T13:38:46;3.53;;;1.88;;
2452;SDS011;63678;47.994;7.854;2024-02-04T13:41:22;3.08;;;1.48;;
2452;SDS011;63678;47.994;7.854;2024-02-04T13:43:55;6.53;;;1.90;;
2452;SDS011;63678;47.994;7.854;2024-02-04T13:46:28;9.68;;;4.20;;
2452;SDS011;63678;47.994;7.854;2024-02-04T13:49:02;4.22;;;2.00;;
2452;SDS011;63678;47.994;7.854;2024-02-04T13:51:35;4.40;;;2.35;;
2452;SDS011;63678;47.994;7.854;2024-02-04T13:54:16;3.92;;;2.20;;
2452;SDS011;63678;47.994;7.854;2024-02-04T13:56:50;4.20;;;1.73;;
2452;SDS011;63678;47.994;7.854;2024-02-04T13:59:25;4.30;;;1.98;;
2452;SDS011;63678;47.994;7.854;2024-02-04T14:01:58;3.50;;;1.50;;
2452;SDS011;63678;47.994;7.854;2024-02-04T14:04:32;3.83;;;1.73;;
2452;SDS011;63678;47.994;7.854;2024-02-04T14:07:05;4.15;;;1.92;;
2452;SDS011;63678;47.994;7.854;2024-02-04T14:09:40;3.60;;;1.90;;
2452;SDS011;63678;47.994;7.854;2024-02-04T14:12:13;3.63;;;1.70;;
2452;SDS011;63678;47.994;7.854;2024-02-04T14:14:46;3.95;;;2.10;;
2452;SDS011;63678;47.994;7.854;2024-02-04T14:17:24;3.92;;;1.60;;
2452;SDS011;63678;47.994;7.854;2024-02-04T14:19:56;3.67;;;1.90;;
2452;SDS011;63678;47.994;7.854;2024-02-04T14:22:30;6.28;;;2.10;;
2452;SDS011;63678;47.994;7.854;2024-02-04T14:25:03;3.63;;;1.98;;
2452;SDS011;63678;47.994;7.854;2024-02-04T14:27:38;5.10;;;1.90;;
2452;SDS011;63678;47.994;7.854;2024-02-04T14:30:11;4.82;;;1.73;;
2452;SDS011;63678;47.994;7.854;2024-02-04T14:32:45;3.92;;;1.80;;
2452;SDS011;63678;47.994;7.854;2024-02-04T14:35:18;4.18;;;2.20;;
2452;SDS011;63678;47.994;7.854;2024-02-04T14:37:51;4.22;;;1.98;;
2452;SDS011;63678;47.994;7.854;2024-02-04T14:40:24;5.50;;;3.83;;
2452;SDS011;63678;47.994;7.854;2024-02-04T14:42:57;5.20;;;2.28;;
2452;SDS011;63678;47.994;7.854;2024-02-04T14:45:31;4.20;;;1.73;;
2452;SDS011;63678;47.994;7.854;2024-02-04T14:48:05;4.40;;;2.35;;
2452;SDS011;63678;47.994;7.854;2024-02-04T14:50:38;4.90;;;1.90;;
2452;SDS011;63678;47.994;7.854;2024-02-04T14:53:11;5.05;;;2.20;;
2452;SDS011;63678;47.994;7.854;2024-02-04T14:55:44;3.97;;;2.10;;
2452;SDS011;63678;47.994;7.854;2024-02-04T14:58:17;4.95;;;2.40;;
2452;SDS011;63678;47.994;7.854;2024-02-04T15:00:51;4.50;;;2.20;;
2452;SDS011;63678;47.994;7.854;2024-02-04T15:03:23;4.20;;;1.70;;
2452;SDS011;63678;47.994;7.854;2024-02-04T15:05:56;4.28;;;2.00;;
2452;SDS011;63678;47.994;7.854;2024-02-04T15:08:29;3.63;;;1.85;;
2452;SDS011;63678;47.994;7.854;2024-02-04T15:11:02;5.90;;;2.20;;
2452;SDS011;63678;47.994;7.854;2024-02-04T15:13:35;5.35;;;2.10;;
2452;SDS011;63678;47.994;7.854;2024-02-04T15:16:09;10.00;;;3.33;;
2452;SDS011;63678;47.994;7.854;2024-02-04T15:18:44;5.60;;;2.67;;
2452;SDS011;63678;47.994;7.854;2024-02-04T15:21:17;5.30;;;2.78;;
2452;SDS011;63678;47.994;7.854;2024-02-04T15:23:50;6.78;;;2.55;;
2452;SDS011;63678;47.994;7.854;2024-02-04T15:26:23;6.32;;;2.25;;
2452;SDS011;63678;47.994;7.854;2024-02-04T15:28:59;7.05;;;3.08;;
2452;SDS011;63678;47.994;7.854;2024-02-04T15:31:34;4.93;;;2.40;;
2452;SDS011;63678;47.994;7.854;2024-02-04T15:34:07;5.80;;;2.33;;
2452;SDS011;63678;47.994;7.854;2024-02-04T15:36:40;5.20;;;2.90;;
2452;SDS011;63678;47.994;7.854;2024-02-04T15:39:13;4.07;;;2.00;;
2452;SDS011;63678;47.994;7.854;2024-02-04T15:41:47;4.70;;;2.63;;
2452;SDS011;63678;47.994;7.854;2024-02-04T15:44:20;6.80;;;3.03;;
2452;SDS011;63678;47.994;7.854;2024-02-04T15:46:54;12.75;;;4.63;;
2452;SDS011;63678;47.994;7.854;2024-02-04T15:49:27;9.38;;;4.43;;
2452;SDS011;63678;47.994;7.854;2024-02-04T15:52:00;6.00;;;2.72;;
2452;SDS011;63678;47.994;7.854;2024-02-04T15:54:33;5.18;;;2.65;;
2452;SDS011;63678;47.994;7.854;2024-02-04T15:57:07;5.73;;;2.40;;